Time;durP1;ratioP1;P1;durP2;ratioP2;P2;SDS_P1;SDS_P2;PMS_P1;PMS_P2;Temp;Humidity;BMP_temperature;BMP_pressure;BME280_temperature;BME280_humidity;BME280_pressure;Samples;Min_cycle;Max_cycle;Signal;HPM_P1;HPM_P2
2021/11/09 00:02:03;;;;;;;6.60;5.73;;;7.80;99.90;;;;;;4944921;28;20545;-52
2021/11/09 00:04:37;;;;;;;6.53;5.70;;;7.90;99.90;;;;;;4949810;29;20618;-49
2021/11/09 00:07:13;;;;;;;5.90;5.27;;;7.80;99.90;;;;;;4946306;28;20499;-48
2021/11/09 00:09:56;;;;;;;6.20;5.60;;;7.90;99.90;;;;;;4951167;29;20424;-50
2021/11/09 00:12:27;;;;;;;12.10;5.90;;;7.90;99.90;;;;;;4949625;29;20433;-51
2021/11/09 00:14:53;;;;;;;6.50;4.53;;;7.90;99.90;;;;;;4943358;29;20940;-51
2021/11/09 00:17:18;;;;;;;5.87;5.20;;;7.90;99.90;;;;;;4951007;29;20771;-51
2021/11/09 00:19:44;;;;;;;9.10;5.40;;;8.00;99.90;;;;;;4951163;29;20528;-53
2021/11/09 00:22:10;;;;;;;6.17;5.57;;;8.00;99.90;;;;;;4951021;29;20991;-50
2021/11/09 00:24:35;;;;;;;6.17;4.73;;;8.00;99.90;;;;;;4943446;29;20778;-51
2021/11/09 00:27:01;;;;;;;5.30;4.80;;;8.10;99.90;;;;;;4947101;29;20236;-50
2021/11/09 00:29:27;;;;;;;6.03;5.00;;;8.00;99.90;;;;;;4949649;29;20196;-49
2021/11/09 00:31:52;;;;;;;6.83;5.60;;;8.10;99.90;;;;;;4948678;29;20197;-52
2021/11/09 00:34:18;;;;;;;6.43;5.27;;;8.10;99.90;;;;;;4949571;29;20587;-50
2021/11/09 00:36:43;;;;;;;6.43;5.57;;;8.10;99.90;;;;;;4950038;29;20202;-49
2021/11/09 00:39:12;;;;;;;9.47;5.50;;;8.00;99.90;;;;;;4938976;29;20197;-48
2021/11/09 00:41:38;;;;;;;4.90;4.40;;;8.10;99.90;;;;;;4949576;29;20205;-53
2021/11/09 00:44:04;;;;;;;8.70;5.27;;;8.00;99.90;;;;;;4950098;29;20445;-51
2021/11/09 00:46:30;;;;;;;7.17;4.80;;;8.10;99.90;;;;;;4950854;29;20421;-49
2021/11/09 00:48:55;;;;;;;5.20;4.47;;;8.10;99.90;;;;;;4949148;29;20791;-48
2021/11/09 00:51:21;;;;;;;9.60;5.50;;;8.10;99.90;;;;;;4950935;29;20503;-49
2021/11/09 00:53:47;;;;;;;7.47;4.90;;;8.10;99.90;;;;;;4950891;29;20567;-52
2021/11/09 00:56:13;;;;;;;5.47;4.60;;;8.10;99.90;;;;;;4950906;29;20181;-51
2021/11/09 00:58:38;;;;;;;7.93;4.47;;;8.00;99.90;;;;;;4949088;28;20920;-47
2021/11/09 01:01:04;;;;;;;6.63;5.33;;;8.00;99.90;;;;;;4952622;28;20276;-48
2021/11/09 01:03:30;;;;;;;6.17;4.80;;;8.10;99.90;;;;;;4950362;29;20197;-47
2021/11/09 01:05:56;;;;;;;6.67;4.97;;;8.10;99.90;;;;;;4950581;29;20193;-48
2021/11/09 01:08:22;;;;;;;8.90;5.37;;;8.00;99.90;;;;;;4950684;29;20441;-51
2021/11/09 01:10:51;;;;;;;5.67;4.60;;;8.00;99.90;;;;;;4947257;29;20201;-49
2021/11/09 01:13:19;;;;;;;9.43;5.30;;;8.00;99.90;;;;;;4950330;28;20433;-47
2021/11/09 01:15:49;;;;;;;7.20;5.37;;;8.10;99.90;;;;;;4949782;29;20520;-47
2021/11/09 01:18:17;;;;;;;6.47;5.77;;;8.10;99.90;;;;;;4951556;28;20908;-49
2021/11/09 01:20:42;;;;;;;5.27;4.77;;;8.00;99.90;;;;;;4952926;29;20440;-47
2021/11/09 01:23:08;;;;;;;8.37;5.60;;;7.90;99.90;;;;;;4954181;29;20421;-45
2021/11/09 01:25:34;;;;;;;9.97;6.27;;;7.90;99.90;;;;;;4945294;29;20280;-48
2021/11/09 01:28:00;;;;;;;6.10;5.50;;;7.90;99.90;;;;;;4935987;29;20194;-48
2021/11/09 01:30:27;;;;;;;6.57;5.80;;;7.90;99.90;;;;;;4953589;29;20425;-51
2021/11/09 01:32:54;;;;;;;7.60;5.43;;;7.90;99.90;;;;;;4952894;29;20967;-47
2021/11/09 01:35:20;;;;;;;7.10;5.70;;;7.90;99.90;;;;;;4952137;29;20473;-51
2021/11/09 01:37:47;;;;;;;8.20;5.40;;;7.90;99.90;;;;;;4952954;29;20500;-48
2021/11/09 01:40:13;;;;;;;8.07;5.60;;;7.90;99.90;;;;;;4953050;29;20492;-50
2021/11/09 01:42:39;;;;;;;9.43;5.70;;;8.00;99.90;;;;;;4952374;29;20500;-50
2021/11/09 01:45:08;;;;;;;9.03;5.17;;;8.00;99.90;;;;;;4953413;29;20441;-47
2021/11/09 01:47:34;;;;;;;11.33;6.07;;;8.00;99.90;;;;;;4952870;29;20429;-47
2021/11/09 01:50:00;;;;;;;7.83;5.77;;;8.00;99.90;;;;;;4951686;29;20414;-48
2021/11/09 01:52:26;;;;;;;7.37;5.50;;;8.00;99.90;;;;;;4934386;29;20193;-48
2021/11/09 01:54:52;;;;;;;7.40;5.50;;;8.00;99.90;;;;;;4934487;29;20446;-51
2021/11/09 01:57:18;;;;;;;8.57;5.90;;;8.00;99.90;;;;;;4934524;29;20951;-52
2021/11/09 01:59:44;;;;;;;8.17;5.90;;;8.10;99.90;;;;;;4948473;29;20188;-50
2021/11/09 02:02:10;;;;;;;6.20;5.50;;;8.00;99.90;;;;;;4950179;28;20679;-51
2021/11/09 02:04:36;;;;;;;9.70;5.63;;;8.10;99.90;;;;;;4952429;28;20441;-47
2021/11/09 02:07:02;;;;;;;9.47;5.50;;;8.00;99.90;;;;;;4952922;29;20202;-49
2021/11/09 02:09:28;;;;;;;6.83;5.47;;;8.00;99.90;;;;;;4953230;29;20527;-47
2021/11/09 02:11:53;;;;;;;7.30;5.50;;;8.00;99.90;;;;;;4951541;29;20560;-50
2021/11/09 02:14:20;;;;;;;10.73;5.47;;;8.00;99.90;;;;;;4945319;29;20205;-50
2021/11/09 02:16:48;;;;;;;7.57;5.40;;;8.10;99.90;;;;;;4953097;29;20672;-51
2021/11/09 02:19:14;;;;;;;8.17;6.00;;;8.00;99.90;;;;;;4953159;29;20429;-50
2021/11/09 02:21:39;;;;;;;8.50;5.90;;;8.00;99.90;;;;;;4952181;29;20523;-48
2021/11/09 02:24:05;;;;;;;7.97;5.43;;;8.10;99.90;;;;;;4950412;29;20959;-51
2021/11/09 02:26:31;;;;;;;6.67;5.50;;;8.00;99.90;;;;;;4930250;29;20197;-54
2021/11/09 02:28:58;;;;;;;6.90;5.60;;;8.10;99.90;;;;;;4951023;28;20198;-51
2021/11/09 02:31:26;;;;;;;6.57;5.30;;;8.00;99.90;;;;;;4952153;29;20216;-50
2021/11/09 02:33:52;;;;;;;6.73;6.00;;;8.10;99.90;;;;;;4951953;29;20487;-54
2021/11/09 02:36:18;;;;;;;8.60;6.10;;;8.00;99.90;;;;;;4952288;29;20421;-53
2021/11/09 02:38:45;;;;;;;6.70;5.60;;;8.00;99.90;;;;;;4939835;29;20956;-52
2021/11/09 02:41:11;;;;;;;10.03;6.27;;;8.00;99.90;;;;;;4948373;29;20478;-48
2021/11/09 02:43:37;;;;;;;8.20;5.60;;;8.00;99.90;;;;;;4951629;29;20842;-50
2021/11/09 02:49:50;;;;;;;7.30;5.93;;;8.00;99.90;;;;;;4948953;29;20276;-48
2021/11/09 02:51:49;;;;;;;7.40;6.03;;;8.00;99.90;;;;;;4937782;29;20841;-47
2021/11/09 02:54:28;;;;;;;7.47;6.17;;;8.00;99.90;;;;;;4950900;29;20483;-54
2021/11/09 03:02:14;;;;;;;9.13;6.43;;;8.10;99.90;;;;;;4951381;29;20840;-52
2021/11/09 03:07:26;;;;;;;9.10;5.70;;;8.10;99.90;;;;;;4952697;29;20404;-48
2021/11/09 03:10:00;;;;;;;9.03;6.37;;;8.10;99.90;;;;;;4951395;29;20436;-51
2021/11/09 03:12:34;;;;;;;10.00;6.03;;;8.10;99.90;;;;;;4951108;29;20441;-52
2021/11/09 03:15:00;;;;;;;7.53;6.40;;;8.00;99.90;;;;;;4952130;29;20475;-49
2021/11/09 03:17:34;;;;;;;10.33;5.90;;;8.10;99.90;;;;;;4951011;29;20449;-51
2021/11/09 03:20:02;;;;;;;11.70;6.97;;;8.10;99.90;;;;;;4951928;29;20489;-51
2021/11/09 03:47:25;;;;;;;12.73;7.20;;;7.90;99.90;;;;;;4909718;29;20944;-53
2021/11/09 03:49:52;;;;;;;9.60;6.23;;;7.90;99.90;;;;;;4947789;29;20501;-54
2021/11/09 03:52:22;;;;;;;10.13;6.90;;;7.80;99.90;;;;;;4951577;29;20464;-48
2021/11/09 03:54:54;;;;;;;10.37;6.70;;;7.80;99.90;;;;;;4951697;29;20536;-50
2021/11/09 03:57:25;;;;;;;8.50;6.20;;;7.90;99.90;;;;;;4945861;29;20434;-52
2021/11/09 04:02:44;;;;;;;10.57;6.50;;;7.90;99.90;;;;;;4932843;29;20882;-50
2021/11/09 04:05:13;;;;;;;8.70;6.53;;;7.90;99.90;;;;;;4953628;28;20433;-57
2021/11/09 04:08:06;;;;;;;8.73;6.10;;;8.00;99.90;;;;;;4951024;28;20441;-49
2021/11/09 04:10:46;;;;;;;7.13;6.40;;;7.90;99.90;;;;;;4950742;29;20448;-52
2021/11/09 04:21:44;;;;;;;8.90;5.77;;;7.80;99.90;;;;;;4950980;29;20219;-50
2021/11/09 05:09:07;;;;;;;7.70;5.60;;;7.70;99.90;;;;;;4952764;29;21032;-49
2021/11/09 05:11:33;;;;;;;9.07;6.60;;;7.70;99.90;;;;;;4953833;29;20433;-50
2021/11/09 05:13:58;;;;;;;8.80;6.80;;;7.60;99.90;;;;;;4954484;29;20460;-48
2021/11/09 05:16:24;;;;;;;8.03;6.17;;;7.60;99.90;;;;;;4953687;29;20201;-51
2021/11/09 05:18:49;;;;;;;11.07;7.77;;;7.60;99.90;;;;;;4954531;29;20197;-48
2021/11/09 05:21:15;;;;;;;10.50;5.97;;;7.60;99.90;;;;;;4954089;29;20228;-48
2021/11/09 05:23:41;;;;;;;8.87;6.70;;;7.60;99.90;;;;;;4945361;29;20189;-50
2021/11/09 05:26:07;;;;;;;8.50;6.53;;;7.60;99.90;;;;;;4943966;28;20257;-47
2021/11/09 05:28:33;;;;;;;11.17;6.97;;;7.60;99.90;;;;;;4945242;29;20520;-51
2021/11/09 05:30:59;;;;;;;10.10;6.60;;;7.60;99.90;;;;;;4927323;29;20204;-52
2021/11/09 05:33:24;;;;;;;9.07;6.50;;;7.60;99.90;;;;;;4944247;29;20245;-50
2021/11/09 05:35:51;;;;;;;12.57;7.10;;;7.60;99.90;;;;;;4944464;29;21291;-51
2021/11/09 05:38:25;;;;;;;10.13;7.30;;;7.60;99.90;;;;;;4944922;29;20186;-50
2021/11/09 05:41:05;;;;;;;12.27;7.20;;;7.60;99.90;;;;;;4943998;29;20429;-48
2021/11/09 05:43:31;;;;;;;8.73;5.97;;;7.60;99.90;;;;;;4953139;29;20444;-52
2021/11/09 05:45:56;;;;;;;13.93;6.77;;;7.70;99.90;;;;;;4953108;29;20795;-48
2021/11/09 05:48:22;;;;;;;12.97;8.03;;;7.70;99.90;;;;;;4952351;29;20217;-61
2021/11/09 05:50:49;;;;;;;9.43;6.63;;;7.70;99.90;;;;;;4952694;29;20286;-62
2021/11/09 05:53:15;;;;;;;8.97;6.60;;;7.70;99.90;;;;;;4952970;29;20804;-61
2021/11/09 05:55:40;;;;;;;11.33;7.37;;;7.70;99.90;;;;;;4952930;29;20507;-62
2021/11/09 05:58:06;;;;;;;8.30;6.40;;;7.60;99.90;;;;;;4953079;29;20264;-57
2021/11/09 06:00:32;;;;;;;9.47;6.97;;;7.60;99.90;;;;;;4946523;29;20294;-62
2021/11/09 06:02:58;;;;;;;11.20;6.80;;;7.50;99.90;;;;;;4953377;28;20987;-62
2021/11/09 06:05:23;;;;;;;8.77;7.20;;;7.40;99.90;;;;;;4952358;29;20193;-65
2021/11/09 06:07:49;;;;;;;11.03;8.20;;;7.40;99.90;;;;;;4953335;29;20497;-62
2021/11/09 06:10:14;;;;;;;10.07;6.63;;;7.40;99.90;;;;;;4952471;29;20197;-62
2021/11/09 06:12:40;;;;;;;10.13;7.30;;;7.40;99.90;;;;;;4953063;29;20189;-58
2021/11/09 06:15:06;;;;;;;11.13;7.43;;;7.40;99.90;;;;;;4951898;29;20210;-61
2021/11/09 06:17:32;;;;;;;10.37;7.00;;;7.30;99.90;;;;;;4946618;29;20182;-63
2021/11/09 06:19:58;;;;;;;8.70;7.07;;;7.30;99.90;;;;;;4945740;29;21199;-62
2021/11/09 06:22:24;;;;;;;11.30;7.30;;;7.30;99.90;;;;;;4944651;29;20432;-61
2021/11/09 06:24:51;;;;;;;10.67;6.77;;;7.30;99.90;;;;;;4947252;29;20522;-61
2021/11/09 06:27:17;;;;;;;10.27;7.10;;;7.30;99.90;;;;;;4945548;29;20233;-62
2021/11/09 06:29:43;;;;;;;10.20;7.50;;;7.20;99.90;;;;;;4951416;29;20426;-61
2021/11/09 06:32:09;;;;;;;10.13;6.80;;;7.20;99.90;;;;;;4939868;29;21030;-58
2021/11/09 06:34:34;;;;;;;11.87;7.20;;;7.10;99.90;;;;;;4948534;29;20225;-62
2021/11/09 06:37:00;;;;;;;9.37;7.10;;;7.20;99.90;;;;;;4950910;29;20177;-62
2021/11/09 06:39:27;;;;;;;11.93;7.60;;;7.20;99.90;;;;;;4933145;29;20441;-61
2021/11/09 06:41:54;;;;;;;12.03;7.60;;;7.20;99.90;;;;;;4951850;29;20185;-61
2021/11/09 06:44:20;;;;;;;10.57;7.10;;;7.20;99.90;;;;;;4949332;29;20481;-60
2021/11/09 06:46:46;;;;;;;11.03;7.17;;;7.20;99.90;;;;;;4949740;29;20511;-60
2021/11/09 06:49:12;;;;;;;9.60;8.13;;;7.20;99.90;;;;;;4950789;29;20191;-61
2021/11/09 06:51:38;;;;;;;11.33;8.10;;;7.20;99.90;;;;;;4951212;29;21144;-56
2021/11/09 06:54:03;;;;;;;11.40;7.43;;;7.20;99.90;;;;;;4951490;29;20461;-61
2021/11/09 06:56:29;;;;;;;9.70;6.70;;;7.20;99.90;;;;;;4951700;29;20208;-61
2021/11/09 06:58:55;;;;;;;9.50;7.20;;;7.20;99.90;;;;;;4950296;29;20193;-61
2021/11/09 07:01:21;;;;;;;9.80;7.73;;;7.20;99.90;;;;;;4951486;29;20182;-60
2021/11/09 07:03:47;;;;;;;12.23;7.07;;;7.20;99.90;;;;;;4944878;29;21044;-56
2021/11/09 07:06:12;;;;;;;11.03;7.53;;;7.10;99.90;;;;;;4938775;29;20533;-62
2021/11/09 07:08:38;;;;;;;10.90;8.17;;;7.10;99.90;;;;;;4944116;29;20445;-61
2021/11/09 07:11:05;;;;;;;10.70;7.80;;;7.10;99.90;;;;;;4946123;29;20193;-61
2021/11/09 07:13:31;;;;;;;11.63;7.03;;;7.10;99.90;;;;;;4951769;29;20190;-61
2021/11/09 07:15:57;;;;;;;12.27;8.03;;;7.20;99.90;;;;;;4948882;28;20465;-55
2021/11/09 07:18:23;;;;;;;11.63;8.70;;;7.20;99.90;;;;;;4945366;29;20523;-61
2021/11/09 07:20:50;;;;;;;9.53;7.10;;;7.20;99.90;;;;;;4951901;29;20673;-61
2021/11/09 07:23:16;;;;;;;9.07;7.70;;;7.20;99.90;;;;;;4951200;29;20634;-60
2021/11/09 07:25:42;;;;;;;14.50;7.53;;;7.30;99.90;;;;;;4938267;29;20255;-60
2021/11/09 07:28:08;;;;;;;14.03;8.60;;;7.30;99.90;;;;;;4952062;28;20413;-62
2021/11/09 07:30:42;;;;;;;9.40;7.37;;;7.30;99.90;;;;;;4933895;29;20821;-61
2021/11/09 07:33:09;;;;;;;9.63;8.03;;;7.40;99.90;;;;;;4951641;29;20601;-60
2021/11/09 07:35:35;;;;;;;13.63;8.50;;;7.50;99.90;;;;;;4950087;29;20500;-61
2021/11/09 07:38:01;;;;;;;10.03;8.40;;;7.50;99.90;;;;;;4950353;29;20434;-61
2021/11/09 07:40:26;;;;;;;11.70;8.83;;;7.70;99.90;;;;;;4943008;29;20477;-63
2021/11/09 07:42:52;;;;;;;11.50;7.93;;;7.70;99.90;;;;;;4948659;29;20309;-61
2021/11/09 07:45:21;;;;;;;13.73;8.50;;;7.90;99.90;;;;;;4921008;29;20221;-60
2021/11/09 07:47:47;;;;;;;10.83;7.87;;;8.00;99.90;;;;;;4939536;29;20432;-60
2021/11/09 07:50:13;;;;;;;10.53;7.50;;;8.10;99.90;;;;;;4950087;29;20429;-60
2021/11/09 07:52:39;;;;;;;10.63;7.23;;;8.20;99.90;;;;;;4950251;29;20434;-60
2021/11/09 07:55:08;;;;;;;9.20;7.60;;;8.30;99.90;;;;;;4950890;29;20560;-60
2021/11/09 07:57:52;;;;;;;9.60;7.63;;;8.40;99.90;;;;;;4950598;29;20182;-60
2021/11/09 08:00:30;;;;;;;7.97;6.70;;;8.50;99.90;;;;;;4948218;29;20437;-60
2021/11/09 08:03:14;;;;;;;11.70;8.07;;;8.60;99.90;;;;;;4948607;29;20413;-60
2021/11/09 08:06:02;;;;;;;10.50;7.37;;;8.80;99.90;;;;;;4946114;29;20449;-61
2021/11/09 08:08:34;;;;;;;10.10;7.53;;;8.90;99.90;;;;;;4938953;29;20421;-61
2021/11/09 08:11:00;;;;;;;7.67;6.87;;;8.90;99.90;;;;;;4948714;29;20429;-59
2021/11/09 08:13:25;;;;;;;8.67;7.00;;;9.10;99.90;;;;;;4948981;29;20460;-59
2021/11/09 08:15:51;;;;;;;11.70;7.43;;;9.20;99.90;;;;;;4947789;29;20645;-60
2021/11/09 08:18:17;;;;;;;9.57;6.73;;;9.30;99.90;;;;;;4949417;29;20189;-60
2021/11/09 08:20:42;;;;;;;8.87;7.37;;;9.50;99.90;;;;;;4948724;29;20185;-60
2021/11/09 08:23:08;;;;;;;10.80;6.83;;;10.00;99.90;;;;;;4950551;29;20197;-61
2021/11/09 08:25:34;;;;;;;9.20;6.63;;;10.70;99.90;;;;;;4949689;29;20212;-60
2021/11/09 08:28:01;;;;;;;6.80;6.07;;;11.30;99.90;;;;;;4952467;28;20758;-61
2021/11/09 08:30:27;;;;;;;8.17;6.77;;;11.90;99.90;;;;;;4953256;29;20773;-59
2021/11/09 08:32:54;;;;;;;9.10;8.20;;;12.40;99.90;;;;;;4954145;29;20472;-60
2021/11/09 08:35:23;;;;;;;12.40;8.00;;;12.70;99.90;;;;;;4948364;29;20484;-60
2021/11/09 08:37:51;;;;;;;8.90;7.00;;;13.20;99.90;;;;;;4953478;29;20421;-60
2021/11/09 08:40:20;;;;;;;11.53;8.40;;;13.70;99.90;;;;;;4953093;29;20416;-61
2021/11/09 08:42:50;;;;;;;7.83;7.10;;;14.20;99.90;;;;;;4953112;29;20449;-61
2021/11/09 08:48:15;;;;;;;8.13;7.33;;;14.70;99.90;;;;;;4953338;29;20510;-61
2021/11/09 08:50:42;;;;;;;8.80;8.00;;;14.30;99.60;;;;;;4954068;29;20459;-61
2021/11/09 08:53:16;;;;;;;8.27;7.47;;;13.80;99.90;;;;;;4953216;29;20892;-59
2021/11/09 09:04:27;;;;;;;9.20;8.10;;;11.90;99.90;;;;;;4943598;29;20418;-61
2021/11/09 09:06:22;;;;;;;9.10;7.60;;;11.40;99.90;;;;;;4940519;29;20435;-54
2021/11/09 09:08:47;;;;;;;12.33;8.30;;;11.10;99.90;;;;;;4953738;29;21116;-63
2021/11/09 09:11:13;;;;;;;9.37;8.30;;;10.80;99.90;;;;;;4952506;29;20190;-61
2021/11/09 09:13:39;;;;;;;11.10;8.77;;;10.70;99.90;;;;;;4953735;29;20421;-62
2021/11/09 09:16:04;;;;;;;9.97;8.77;;;10.70;99.90;;;;;;4953134;29;20744;-60
2021/11/09 09:18:30;;;;;;;11.07;8.43;;;10.50;99.90;;;;;;4953834;29;20185;-61
2021/11/09 09:21:08;;;;;;;10.60;8.30;;;10.50;99.90;;;;;;4952800;29;20255;-61
2021/11/09 09:23:35;;;;;;;11.53;9.17;;;10.40;99.90;;;;;;4953995;29;21087;-61
2021/11/09 09:29:35;;;;;;;9.60;8.20;;;10.50;99.90;;;;;;4949067;29;20500;-61
2021/11/09 09:32:05;;;;;;;11.07;7.50;;;10.50;99.90;;;;;;4933455;29;20444;-61
2021/11/09 09:54:08;;;;;;;8.57;7.87;;;16.00;98.10;;;;;;4951514;29;20458;-52
2021/11/09 09:56:46;;;;;;;9.10;8.30;;;17.10;95.00;;;;;;4951500;29;20433;-61
2021/11/09 09:59:12;;;;;;;7.70;7.00;;;18.00;90.90;;;;;;4951355;29;20432;-61
2021/11/09 10:02:03;;;;;;;8.73;8.03;;;18.30;88.80;;;;;;4948380;29;20805;-63
2021/11/09 10:04:31;;;;;;;8.10;7.40;;;19.00;84.60;;;;;;4943523;29;20240;-61
2021/11/09 10:06:58;;;;;;;8.27;7.57;;;19.50;81.20;;;;;;4952426;28;20937;-61
2021/11/09 10:09:49;;;;;;;9.43;8.67;;;19.50;75.70;;;;;;4943878;29;21142;-64
2021/11/09 10:12:33;;;;;;;9.23;8.33;;;19.50;76.30;;;;;;4951553;29;20441;-61
2021/11/09 10:15:10;;;;;;;7.30;6.70;;;19.90;71.70;;;;;;4952751;29;20494;-61
2021/11/09 10:17:39;;;;;;;9.20;6.23;;;20.10;70.10;;;;;;4951589;29;20461;-61
2021/11/09 10:20:13;;;;;;;6.47;5.97;;;20.40;69.60;;;;;;4952635;29;20931;-60
2021/11/09 10:22:41;;;;;;;6.20;5.80;;;20.50;67.90;;;;;;4952301;29;20429;-54
2021/11/09 10:25:14;;;;;;;7.27;6.77;;;20.10;63.20;;;;;;4941697;29;20434;-61
2021/11/09 10:27:42;;;;;;;7.90;7.33;;;19.90;62.80;;;;;;4950950;29;20446;-61
2021/11/09 10:30:09;;;;;;;8.50;7.70;;;20.10;64.40;;;;;;4952552;29;21140;-61
2021/11/09 10:32:36;;;;;;;7.23;6.73;;;20.00;65.00;;;;;;4951389;29;20506;-61
2021/11/09 10:35:05;;;;;;;8.73;7.90;;;20.50;62.50;;;;;;4934398;29;20463;-61
2021/11/09 10:37:34;;;;;;;7.20;6.60;;;21.10;61.60;;;;;;4951455;29;20440;-59
2021/11/09 10:40:05;;;;;;;7.10;6.50;;;20.90;60.00;;;;;;4935584;29;20429;-60
2021/11/09 10:42:36;;;;;;;7.70;6.90;;;20.50;60.50;;;;;;4936995;29;20833;-61
2021/11/09 10:45:10;;;;;;;6.70;6.20;;;20.60;59.10;;;;;;4952429;29;20408;-58
2021/11/09 10:47:40;;;;;;;6.70;6.23;;;20.90;60.90;;;;;;4951163;29;20923;-60
2021/11/09 10:50:11;;;;;;;7.53;6.87;;;21.10;59.60;;;;;;4934362;29;20435;-61
2021/11/09 10:52:39;;;;;;;7.73;7.00;;;21.10;58.90;;;;;;4950853;29;20495;-60
2021/11/09 10:57:57;;;;;;;8.30;7.60;;;20.80;58.30;;;;;;4933572;29;20424;-61
2021/11/09 11:06:16;;;;;;;7.60;6.93;;;21.20;56.40;;;;;;4949712;28;20456;-60
2021/11/09 11:08:43;;;;;;;8.03;7.33;;;21.90;56.10;;;;;;4932848;29;20445;-61
2021/11/09 11:11:23;;;;;;;7.03;6.53;;;21.00;54.50;;;;;;4951584;29;20428;-61
2021/11/09 11:13:52;;;;;;;7.37;6.73;;;20.60;56.10;;;;;;4951411;29;20471;-62
2021/11/09 11:16:20;;;;;;;6.83;6.33;;;20.90;55.70;;;;;;4947614;29;20527;-61
2021/11/09 11:18:49;;;;;;;7.20;6.60;;;21.20;54.50;;;;;;4950984;29;20432;-60
2021/11/09 11:21:16;;;;;;;9.40;7.70;;;21.50;54.80;;;;;;4951487;29;20531;-61
2021/11/09 11:23:44;;;;;;;7.13;6.53;;;21.50;56.50;;;;;;4950659;29;20495;-61
2021/11/09 11:26:10;;;;;;;8.93;6.80;;;21.70;55.30;;;;;;4943819;29;20443;-61
2021/11/09 11:28:39;;;;;;;7.90;7.30;;;21.90;54.00;;;;;;4951577;28;20417;-61
2021/11/09 11:31:06;;;;;;;7.60;6.90;;;21.90;53.80;;;;;;4950665;29;20426;-63
2021/11/09 11:33:33;;;;;;;7.53;7.03;;;22.10;53.30;;;;;;4950083;29;20472;-62
2021/11/09 11:35:59;;;;;;;8.00;7.20;;;22.50;53.50;;;;;;4950619;29;20459;-57
2021/11/09 11:38:25;;;;;;;7.67;7.17;;;22.90;51.70;;;;;;4949859;29;20438;-61
2021/11/09 11:40:56;;;;;;;6.57;6.00;;;23.00;51.10;;;;;;4951268;29;20865;-61
2021/11/09 11:43:49;;;;;;;6.53;6.03;;;22.80;50.50;;;;;;4949530;29;20496;-62
2021/11/09 11:46:35;;;;;;;7.20;6.50;;;22.80;49.40;;;;;;4943908;29;20441;-61
2021/11/09 11:49:07;;;;;;;7.10;6.40;;;23.10;48.60;;;;;;4939051;29;20453;-55
2021/11/09 11:51:36;;;;;;;6.93;6.40;;;23.30;48.30;;;;;;4949700;29;20832;-57
2021/11/09 11:54:02;;;;;;;8.20;7.60;;;23.00;49.10;;;;;;4928198;29;20459;-62
2021/11/09 11:56:41;;;;;;;8.00;7.40;;;23.30;50.20;;;;;;4934051;29;20495;-62
2021/11/09 11:59:07;;;;;;;7.60;7.10;;;23.60;49.00;;;;;;4931642;29;20435;-62
2021/11/09 12:01:44;;;;;;;7.70;7.00;;;23.50;48.30;;;;;;4932605;28;21220;-60
2021/11/09 12:04:11;;;;;;;7.60;7.00;;;23.70;48.80;;;;;;4950458;29;20792;-63
2021/11/09 12:06:57;;;;;;;7.20;6.67;;;23.10;50.20;;;;;;4919092;29;20935;-63
2021/11/09 12:09:37;;;;;;;7.13;6.70;;;23.40;48.90;;;;;;4930790;29;20492;-62
2021/11/09 12:12:11;;;;;;;7.13;6.57;;;23.90;47.40;;;;;;4950667;28;20421;-62
2021/11/09 12:14:51;;;;;;;5.93;5.43;;;23.70;47.70;;;;;;4955048;28;20486;-62
2021/11/09 12:17:38;;;;;;;6.70;6.30;;;23.40;48.30;;;;;;4947540;29;20434;-63
2021/11/09 12:20:13;;;;;;;6.80;6.30;;;23.30;48.30;;;;;;4946902;29;20437;-59
2021/11/09 12:22:56;;;;;;;6.50;6.10;;;22.30;50.40;;;;;;4937718;29;20426;-62
2021/11/09 12:25:21;;;;;;;6.63;6.13;;;22.30;50.60;;;;;;4935362;29;20425;-61
2021/11/09 12:27:47;;;;;;;7.57;7.07;;;22.50;50.20;;;;;;4934158;29;20497;-61
2021/11/09 12:30:31;;;;;;;6.47;6.07;;;22.60;50.70;;;;;;4934266;29;20449;-65
2021/11/09 12:33:17;;;;;;;6.70;6.10;;;21.80;51.50;;;;;;4932014;29;20236;-60
2021/11/09 12:36:09;;;;;;;7.87;7.07;;;21.60;53.00;;;;;;4930159;29;20476;-62
2021/11/09 12:38:42;;;;;;;7.50;6.90;;;21.50;53.30;;;;;;4949301;29;20932;-63
2021/11/09 12:41:16;;;;;;;6.70;6.10;;;21.80;51.80;;;;;;4948793;29;20903;-61
2021/11/09 12:43:43;;;;;;;7.73;7.13;;;22.20;50.50;;;;;;4950096;29;20925;-62
2021/11/09 12:46:40;;;;;;;7.37;6.87;;;22.10;51.70;;;;;;4938900;29;20475;-62
2021/11/09 12:49:13;;;;;;;7.57;6.97;;;22.40;50.40;;;;;;4931264;29;20410;-62
2021/11/09 12:51:48;;;;;;;7.20;6.60;;;22.10;51.10;;;;;;4930961;29;20505;-63
2021/11/09 12:54:17;;;;;;;7.57;7.07;;;22.20;51.00;;;;;;4935225;29;20479;-61
2021/11/09 12:56:48;;;;;;;7.20;6.77;;;21.50;51.00;;;;;;4950179;29;20427;-61
2021/11/09 12:59:22;;;;;;;7.07;6.53;;;21.10;52.40;;;;;;4950159;29;20427;-61
2021/11/09 13:05:09;;;;;;;7.47;6.90;;;20.70;52.30;;;;;;4930966;29;20426;-62
2021/11/09 13:09:46;;;;;;;7.87;7.27;;;20.40;53.50;;;;;;4950096;29;20411;-62
2021/11/09 13:12:13;;;;;;;7.50;6.77;;;20.70;52.60;;;;;;4938694;28;20436;-61
2021/11/09 13:14:43;;;;;;;7.10;6.60;;;20.60;53.00;;;;;;4951769;28;20805;-58
2021/11/09 13:17:16;;;;;;;6.23;5.83;;;20.90;52.30;;;;;;4952979;29;20440;-61
2021/11/09 13:19:43;;;;;;;7.27;6.67;;;20.30;50.50;;;;;;4953805;29;20425;-62
2021/11/09 13:22:17;;;;;;;7.27;6.67;;;20.60;50.80;;;;;;4953224;29;20493;-62
2021/11/09 13:24:56;;;;;;;6.53;6.03;;;20.70;51.70;;;;;;4949516;29;21031;-61
2021/11/09 13:27:43;;;;;;;5.00;4.70;;;19.70;49.20;;;;;;4952104;28;21105;-62
2021/11/09 13:30:11;;;;;;;4.73;4.50;;;19.60;48.70;;;;;;4953255;29;20431;-59
2021/11/09 13:32:36;;;;;;;4.30;4.10;;;19.90;48.70;;;;;;4952886;29;20465;-62
2021/11/09 13:35:03;;;;;;;4.50;4.27;;;19.80;46.90;;;;;;4935822;29;20488;-63
2021/11/09 13:37:34;;;;;;;5.13;4.83;;;19.40;48.40;;;;;;4952977;29;20914;-63
2021/11/09 13:40:04;;;;;;;4.83;4.53;;;19.20;47.60;;;;;;4952720;29;20448;-63
2021/11/09 13:42:29;;;;;;;5.70;5.30;;;19.00;48.50;;;;;;4952760;29;20464;-62
2021/11/09 13:44:56;;;;;;;5.30;5.00;;;19.10;48.50;;;;;;4952947;29;20508;-62
2021/11/09 13:47:34;;;;;;;5.37;5.07;;;19.20;49.80;;;;;;4953064;29;20181;-62
2021/11/09 13:50:06;;;;;;;6.03;5.57;;;19.20;49.10;;;;;;4952755;29;20480;-65
2021/11/09 13:52:31;;;;;;;5.13;4.73;;;18.90;49.20;;;;;;4952976;29;21101;-53
2021/11/09 13:54:58;;;;;;;5.50;5.07;;;19.20;48.60;;;;;;4951662;29;20496;-63
2021/11/09 13:57:24;;;;;;;5.70;5.40;;;19.30;48.20;;;;;;4952623;29;20197;-61
2021/11/09 13:59:49;;;;;;;5.37;4.87;;;19.20;48.60;;;;;;4952678;29;20791;-61
2021/11/09 14:02:30;;;;;;;5.00;4.70;;;19.10;49.00;;;;;;4952831;29;20209;-61
2021/11/09 14:05:37;;;;;;;5.93;5.53;;;18.90;49.00;;;;;;4935267;29;20205;-61
2021/11/09 14:08:33;;;;;;;6.23;5.70;;;18.20;49.20;;;;;;4952341;29;20494;-57
2021/11/09 14:14:00;;;;;;;6.40;5.70;;;17.60;51.40;;;;;;4946559;29;20426;-64
2021/11/09 14:16:38;;;;;;;6.77;6.17;;;17.50;51.30;;;;;;4950309;29;20451;-60
2021/11/09 14:19:08;;;;;;;6.50;6.00;;;17.10;52.80;;;;;;4951728;29;20406;-60
2021/11/09 14:21:36;;;;;;;6.93;6.43;;;16.90;52.20;;;;;;4951920;29;20413;-59
2021/11/09 14:24:13;;;;;;;6.70;6.30;;;17.00;52.90;;;;;;4951807;28;20413;-59
2021/11/09 14:26:40;;;;;;;7.07;6.57;;;17.10;53.30;;;;;;4951614;29;20424;-60
2021/11/09 14:29:21;;;;;;;6.67;6.17;;;16.80;52.20;;;;;;4952249;29;20395;-61
2021/11/09 14:32:01;;;;;;;7.10;6.57;;;16.70;53.60;;;;;;4952250;29;20425;-61
2021/11/09 14:34:27;;;;;;;7.17;6.63;;;16.70;53.80;;;;;;4935280;29;20484;-61
2021/11/09 14:37:04;;;;;;;6.53;6.13;;;16.60;54.30;;;;;;4932974;29;20400;-61
2021/11/09 14:39:30;;;;;;;7.37;6.77;;;16.40;54.60;;;;;;4945885;29;20519;-61
2021/11/09 14:42:03;;;;;;;6.67;6.27;;;16.40;55.00;;;;;;4932800;29;20514;-61
2021/11/09 14:44:49;;;;;;;7.10;6.60;;;16.20;54.90;;;;;;4951604;29;20179;-61
2021/11/09 14:47:19;;;;;;;6.93;6.30;;;15.70;55.20;;;;;;4949203;29;21247;-60
2021/11/09 14:49:55;;;;;;;7.57;7.07;;;15.20;56.70;;;;;;4950141;29;20988;-61
2021/11/09 14:52:23;;;;;;;7.50;7.00;;;15.00;57.80;;;;;;4944473;29;20433;-60
2021/11/09 14:54:51;;;;;;;7.40;6.80;;;14.60;58.90;;;;;;4952512;29;20497;-61
2021/11/09 14:57:16;;;;;;;7.10;6.70;;;14.20;60.10;;;;;;4947737;29;20441;-60
2021/11/09 15:00:00;;;;;;;8.00;7.40;;;14.00;62.40;;;;;;4933259;29;20407;-60
2021/11/09 15:02:26;;;;;;;8.00;7.40;;;13.70;63.10;;;;;;4933123;29;20170;-60
2021/11/09 15:04:54;;;;;;;7.60;7.00;;;13.60;63.30;;;;;;4935513;29;20434;-57
2021/11/09 15:07:24;;;;;;;6.97;6.47;;;13.10;64.40;;;;;;4951815;29;20178;-60
2021/11/09 15:12:37;;;;;;;6.80;6.30;;;12.50;68.30;;;;;;4946256;28;21293;-59
2021/11/09 15:26:28;;;;;;;6.90;6.30;;;11.50;77.70;;;;;;4951815;29;20967;-61
2021/11/09 15:31:54;;;;;;;8.73;7.93;;;11.10;82.80;;;;;;4955191;28;20416;-59
2021/11/09 15:39:36;;;;;;;8.60;7.90;;;10.60;90.30;;;;;;4926750;29;20473;-60
2021/11/09 15:42:02;;;;;;;9.47;8.20;;;10.40;91.60;;;;;;4931816;29;20795;-59
2021/11/09 15:44:28;;;;;;;9.63;8.63;;;10.30;92.80;;;;;;4928440;29;20437;-58
2021/11/09 15:46:57;;;;;;;8.80;7.93;;;10.20;94.00;;;;;;4929183;29;20201;-59
2021/11/09 15:49:24;;;;;;;9.20;8.40;;;10.10;95.00;;;;;;4928839;29;20469;-60